Time;durP1;ratioP1;P1;durP2;ratioP2;P2;SDS_P1;SDS_P2;PMS_P1;PMS_P2;Temp;Humidity;BMP_temperature;BMP_pressure;BME280_temperature;BME280_humidity;BME280_pressure;Samples;Min_cycle;Max_cycle;Signal;HPM_P1;HPM_P2
2021/06/19 00:01:28;;;;;;;13.70;2.90;;;;;;;16.84;72.80;100198.94;5010698;28;20077;-65
2021/06/19 00:03:55;;;;;;;11.93;3.38;;;;;;;16.91;72.72;100204.91;5011859;28;20549;-67
2021/06/19 00:06:22;;;;;;;13.07;3.70;;;;;;;16.89;73.02;100196.81;5016185;28;20149;-70
2021/06/19 00:08:49;;;;;;;12.80;4.18;;;;;;;16.94;72.69;100215.53;5012852;28;20045;-66
2021/06/19 00:11:16;;;;;;;11.52;4.82;;;;;;;16.94;72.58;100205.09;5010358;28;20080;-66
2021/06/19 00:13:43;;;;;;;8.07;2.65;;;;;;;16.86;72.67;100202.28;5027214;28;20410;-68
2021/06/19 00:16:10;;;;;;;12.18;3.55;;;;;;;16.95;72.63;100218.00;5016047;28;20121;-67
2021/06/19 00:18:37;;;;;;;7.18;2.70;;;;;;;16.87;72.27;100206.75;5013889;28;20056;-69
2021/06/19 00:21:04;;;;;;;8.02;3.22;;;;;;;16.92;72.42;100218.72;5016385;28;20573;-68
2021/06/19 00:23:31;;;;;;;9.00;3.55;;;;;;;16.91;72.19;100211.38;5014518;28;20141;-68
2021/06/19 00:25:58;;;;;;;8.00;3.35;;;;;;;16.94;72.15;100216.38;5005300;28;20046;-67
2021/06/19 00:28:25;;;;;;;7.93;2.65;;;;;;;16.97;71.82;100212.06;5013328;28;20390;-67
2021/06/19 00:30:52;;;;;;;7.72;3.08;;;;;;;16.95;72.22;100222.84;5013105;28;21843;-66
2021/06/19 00:33:19;;;;;;;6.45;3.45;;;;;;;16.92;72.04;100221.53;5002382;28;20462;-67
2021/06/19 00:35:45;;;;;;;7.90;2.92;;;;;;;16.88;72.19;100230.97;5013487;28;20146;-71
2021/06/19 00:38:12;;;;;;;8.88;2.88;;;;;;;16.86;72.01;100238.94;5010941;28;20080;-70
2021/06/19 00:40:39;;;;;;;10.88;3.33;;;;;;;16.84;72.20;100239.25;5013756;28;20046;-70
2021/06/19 00:43:06;;;;;;;13.43;6.90;;;;;;;16.76;71.97;100235.28;5010665;28;20133;-69
2021/06/19 00:45:37;;;;;;;30.45;15.70;;;;;;;16.58;72.58;100216.63;5018609;28;20129;-68
2021/06/19 00:48:11;;;;;;;13.95;7.03;;;;;;;16.48;72.80;100219.78;5011625;28;20096;-65
2021/06/19 00:50:42;;;;;;;12.32;7.70;;;;;;;16.46;73.05;100222.09;5014299;28;20128;-63
2021/06/19 00:53:09;;;;;;;21.65;11.10;;;;;;;16.27;73.14;100211.09;5008089;28;20077;-62
2021/06/19 00:55:37;;;;;;;27.13;14.35;;;;;;;16.39;72.99;100231.03;5021010;28;20048;-63
2021/06/19 00:58:04;;;;;;;28.40;16.00;;;;;;;16.50;72.73;100231.53;5011532;28;20068;-63
2021/06/19 01:00:32;;;;;;;33.03;16.60;;;;;;;16.49;73.02;100236.34;5015905;28;20461;-62
2021/06/19 01:02:59;;;;;;;27.98;16.15;;;;;;;16.42;73.09;100224.72;5008874;28;20084;-66
2021/06/19 01:05:28;;;;;;;32.78;16.90;;;;;;;16.33;73.40;100218.22;5011346;28;20073;-63
2021/06/19 01:07:56;;;;;;;30.23;14.82;;;;;;;16.24;73.42;100212.59;5012323;28;20050;-63
2021/06/19 01:10:23;;;;;;;34.70;16.35;;;;;;;16.02;73.76;100190.97;5009102;28;20129;-64
2021/06/19 01:12:51;;;;;;;37.75;14.35;;;;;;;16.10;74.10;100211.84;5007806;28;20125;-66
2021/06/19 01:15:17;;;;;;;23.77;12.07;;;;;;;16.16;74.62;100227.47;5014446;28;20124;-62
2021/06/19 01:17:45;;;;;;;23.55;11.25;;;;;;;16.06;74.49;100210.84;5029199;28;20441;-62
2021/06/19 01:20:15;;;;;;;23.92;11.13;;;;;;;16.09;74.99;100208.22;5014494;28;20073;-61
2021/06/19 01:22:46;;;;;;;20.60;10.30;;;;;;;16.11;74.97;100219.16;5015288;28;20204;-61
2021/06/19 01:25:19;;;;;;;22.58;9.82;;;;;;;16.08;75.52;100220.66;5032093;28;20462;-61
2021/06/19 01:27:52;;;;;;;15.30;8.98;;;;;;;16.06;75.60;100208.03;5015657;28;20054;-61
2021/06/19 01:30:21;;;;;;;17.05;9.30;;;;;;;16.08;75.49;100217.00;5020591;28;20480;-63
2021/06/19 01:32:48;;;;;;;28.95;9.73;;;;;;;15.79;75.88;100167.66;5010588;28;20553;-63
2021/06/19 01:35:15;;;;;;;19.52;9.50;;;;;;;16.12;75.91;100218.00;5018912;28;20073;-63
2021/06/19 01:37:45;;;;;;;19.58;9.52;;;;;;;16.17;75.64;100205.75;5023905;28;20067;-63
2021/06/19 01:40:39;;;;;;;21.08;9.65;;;;;;;16.22;75.36;100208.44;5014512;28;20050;-63
2021/06/19 01:43:06;;;;;;;21.67;10.02;;;;;;;16.32;74.89;100225.88;5010108;28;20050;-63
2021/06/19 01:45:34;;;;;;;17.40;9.48;;;;;;;16.33;74.82;100224.69;5012461;28;20134;-63
2021/06/19 01:48:07;;;;;;;19.65;10.10;;;;;;;16.46;74.47;100219.25;5012516;28;20050;-63
2021/06/19 01:50:35;;;;;;;23.38;10.73;;;;;;;16.56;74.62;100218.97;5012819;28;20387;-63
2021/06/19 01:53:03;;;;;;;25.85;11.95;;;;;;;16.49;74.34;100201.69;5018000;28;20129;-63
2021/06/19 01:55:30;;;;;;;26.42;11.82;;;;;;;16.64;74.23;100228.59;5014246;28;20089;-63
2021/06/19 01:57:59;;;;;;;23.33;10.27;;;;;;;16.60;74.42;100217.13;5017147;28;20042;-63
2021/06/19 02:00:30;;;;;;;20.27;11.15;;;;;;;16.45;74.15;100203.53;5017930;28;20132;-63
2021/06/19 02:02:58;;;;;;;24.55;10.45;;;;;;;16.41;74.42;100202.50;5014371;28;20050;-63
2021/06/19 02:05:26;;;;;;;19.92;10.25;;;;;;;16.51;74.60;100219.09;5014161;28;20050;-63
2021/06/19 02:08:01;;;;;;;20.67;9.02;;;;;;;16.39;74.37;100213.28;5016042;28;20085;-63
2021/06/19 02:10:34;;;;;;;18.10;9.75;;;;;;;16.47;74.31;100216.09;5009632;28;20080;-63
2021/06/19 02:13:01;;;;;;;19.50;9.23;;;;;;;16.44;73.80;100218.75;5018912;28;20041;-63
2021/06/19 02:15:29;;;;;;;19.55;9.32;;;;;;;16.50;74.13;100228.72;5015725;28;20541;-74
2021/06/19 02:17:56;;;;;;;21.55;9.02;;;;;;;16.48;73.75;100225.41;5023597;28;20076;-62
2021/06/19 02:20:25;;;;;;;18.27;9.15;;;;;;;16.62;73.96;100237.38;5013642;28;20089;-66
2021/06/19 02:22:52;;;;;;;20.42;9.23;;;;;;;16.50;73.65;100220.25;5015238;28;20133;-65
2021/06/19 02:25:25;;;;;;;22.67;9.10;;;;;;;16.55;73.49;100223.78;5012621;28;20073;-66
2021/06/19 02:27:56;;;;;;;20.33;8.15;;;;;;;16.58;72.99;100225.06;5005998;28;20125;-65
2021/06/19 02:30:31;;;;;;;13.45;7.78;;;;;;;16.40;73.33;100186.75;5014840;28;20137;-65
2021/06/19 02:32:58;;;;;;;15.02;6.90;;;;;;;16.48;73.79;100219.78;5019290;28;20046;-65
2021/06/19 02:35:28;;;;;;;12.60;5.85;;;;;;;16.36;73.88;100217.59;5009894;28;20129;-63
2021/06/19 02:37:55;;;;;;;17.40;7.35;;;;;;;16.31;74.17;100227.03;5014096;28;20125;-61
2021/06/19 02:40:23;;;;;;;13.05;6.75;;;;;;;16.24;74.42;100220.19;5012928;28;20117;-61
2021/06/19 02:42:50;;;;;;;17.92;6.72;;;;;;;16.22;74.01;100214.91;5012436;28;20045;-68
2021/06/19 02:45:17;;;;;;;15.88;7.22;;;;;;;16.33;73.72;100224.69;5010428;28;20093;-66
2021/06/19 02:47:47;;;;;;;14.57;6.60;;;;;;;16.35;73.55;100211.13;5011921;28;20137;-66
2021/06/19 02:50:16;;;;;;;19.17;6.53;;;;;;;16.24;73.43;100198.50;5021399;28;20048;-66
2021/06/19 02:52:44;;;;;;;24.25;7.35;;;;;;;16.20;73.99;100203.09;5013369;28;20047;-65
2021/06/19 02:55:12;;;;;;;18.13;5.93;;;;;;;16.03;74.10;100180.53;5012705;28;20073;-68
2021/06/19 02:57:40;;;;;;;11.57;5.70;;;;;;;16.28;74.29;100226.84;5014405;28;20128;-64
2021/06/19 03:00:09;;;;;;;20.60;6.60;;;;;;;16.19;74.22;100203.44;5027113;28;20117;-61
2021/06/19 03:02:36;;;;;;;17.63;6.13;;;;;;;16.35;74.14;100232.84;5016255;28;20100;-67
2021/06/19 03:05:05;;;;;;;20.90;6.25;;;;;;;16.42;74.21;100235.19;5020640;28;20133;-67
2021/06/19 03:07:32;;;;;;;15.45;6.65;;;;;;;16.45;74.30;100226.06;5014353;28;20132;-68
2021/06/19 03:09:59;;;;;;;14.13;5.60;;;;;;;16.49;74.06;100221.44;5013799;28;20130;-67
2021/06/19 03:12:27;;;;;;;19.38;6.78;;;;;;;16.52;74.52;100230.06;5009179;28;20125;-60
2021/06/19 03:14:55;;;;;;;21.42;6.60;;;;;;;16.61;74.21;100238.53;5011302;28;20046;-60
2021/06/19 03:17:22;;;;;;;33.20;7.65;;;;;;;16.68;74.55;100236.03;5016944;28;20410;-59
2021/06/19 03:19:49;;;;;;;24.88;7.72;;;;;;;16.63;74.52;100226.94;5016362;28;20133;-68
2021/06/19 03:22:16;;;;;;;34.90;7.00;;;;;;;16.75;74.79;100247.72;5015183;28;20124;-69
2021/06/19 03:24:45;;;;;;;23.38;7.82;;;;;;;16.79;74.71;100245.91;5013799;28;20056;-72
2021/06/19 03:27:13;;;;;;;21.33;6.95;;;;;;;16.80;74.87;100253.19;5014028;28;20077;-69
2021/06/19 03:29:41;;;;;;;29.38;8.02;;;;;;;16.79;74.89;100243.06;5009967;28;20113;-69
2021/06/19 03:32:09;;;;;;;22.58;7.32;;;;;;;16.90;75.07;100246.41;5021018;28;20120;-69
2021/06/19 03:34:41;;;;;;;20.08;7.03;;;;;;;16.96;74.93;100255.53;5015342;28;20050;-62
2021/06/19 03:37:08;;;;;;;16.33;7.60;;;;;;;16.95;74.90;100239.75;5014800;28;20455;-62
2021/06/19 03:39:35;;;;;;;25.30;8.30;;;;;;;17.06;74.62;100260.84;5019448;28;20182;-62
2021/06/19 03:42:03;;;;;;;17.98;6.82;;;;;;;17.15;74.75;100256.03;5012753;28;20046;-62
2021/06/19 03:44:30;;;;;;;16.42;6.95;;;;;;;17.19;74.94;100268.31;5011173;28;20125;-62
2021/06/19 03:46:57;;;;;;;21.55;8.10;;;;;;;17.20;74.41;100267.16;5010255;28;20137;-62
2021/06/19 03:49:24;;;;;;;16.67;6.45;;;;;;;17.22;74.53;100269.63;5013330;28;20137;-62
2021/06/19 03:51:51;;;;;;;18.85;6.43;;;;;;;17.11;74.55;100255.03;5008334;28;20073;-61
2021/06/19 03:54:19;;;;;;;23.58;8.23;;;;;;;17.21;74.09;100274.44;5012693;28;20112;-61
2021/06/19 03:56:46;;;;;;;15.25;7.53;;;;;;;17.24;74.20;100276.63;5011250;28;20050;-61
2021/06/19 03:59:13;;;;;;;29.52;8.65;;;;;;;17.26;74.20;100282.78;5011807;28;20109;-62
2021/06/19 04:01:40;;;;;;;22.73;7.05;;;;;;;17.11;74.06;100254.22;5012815;28;20076;-65
2021/06/19 04:04:07;;;;;;;16.52;6.65;;;;;;;17.25;73.81;100277.44;5010068;28;20046;-64
2021/06/19 04:06:34;;;;;;;16.83;6.78;;;;;;;17.23;74.10;100283.44;5009975;28;20172;-63
2021/06/19 04:09:00;;;;;;;20.10;7.97;;;;;;;17.27;73.95;100277.94;5013291;28;20137;-68
2021/06/19 04:11:27;;;;;;;21.73;7.57;;;;;;;17.20;74.34;100271.97;5016362;28;20046;-68
2021/06/19 04:13:54;;;;;;;18.88;6.72;;;;;;;17.26;73.98;100294.06;5014293;28;20129;-63
2021/06/19 04:16:21;;;;;;;26.00;8.15;;;;;;;17.21;74.13;100282.91;5012249;28;20140;-59
2021/06/19 04:18:48;;;;;;;19.63;7.07;;;;;;;17.22;74.00;100287.38;5012760;28;20057;-58
2021/06/19 04:21:17;;;;;;;20.60;6.40;;;;;;;17.14;73.98;100279.75;5010558;28;20557;-59
2021/06/19 04:23:44;;;;;;;22.08;6.95;;;;;;;17.27;73.67;100304.19;5012567;28;20088;-59
2021/06/19 04:26:11;;;;;;;16.60;6.10;;;;;;;17.29;73.76;100306.66;5013561;28;20130;-59
2021/06/19 04:28:38;;;;;;;25.65;7.30;;;;;;;17.28;74.00;100310.66;5006569;28;20129;-60
2021/06/19 04:31:05;;;;;;;21.42;7.22;;;;;;;17.25;74.01;100312.13;5004232;28;20462;-58
2021/06/19 04:33:34;;;;;;;16.98;6.30;;;;;;;17.22;73.58;100318.44;5011564;28;20068;-58
2021/06/19 04:36:02;;;;;;;15.55;6.93;;;;;;;16.92;73.79;100274.25;5012425;28;20088;-58
2021/06/19 04:38:29;;;;;;;13.85;6.30;;;;;;;17.16;73.92;100324.56;5021735;28;20057;-59
2021/06/19 04:41:06;;;;;;;22.73;6.97;;;;;;;17.11;73.73;100324.75;5000996;28;20082;-59
2021/06/19 04:44:20;;;;;;;25.83;8.18;;;;;;;17.06;73.61;100328.56;4999598;28;20493;-59
2021/06/19 04:46:20;;;;;;;18.02;6.50;;;;;;;17.00;73.80;100335.50;4998283;28;20074;-60
2021/06/19 04:48:47;;;;;;;20.25;6.32;;;;;;;16.99;73.43;100336.66;5003153;28;20060;-59
2021/06/19 04:51:14;;;;;;;18.52;7.07;;;;;;;16.99;73.60;100331.88;5012543;28;20128;-59
2021/06/19 04:53:41;;;;;;;21.55;6.78;;;;;;;16.88;73.50;100321.22;5009467;28;20125;-59
2021/06/19 04:56:08;;;;;;;21.92;7.88;;;;;;;16.86;73.73;100321.56;5011734;28;20069;-60
2021/06/19 04:58:35;;;;;;;18.63;6.10;;;;;;;16.89;73.52;100331.31;5009571;28;20125;-60
2021/06/19 05:01:02;;;;;;;24.00;7.72;;;;;;;16.93;73.52;100346.47;5016795;28;20129;-60
2021/06/19 05:03:29;;;;;;;20.63;6.75;;;;;;;16.81;73.47;100328.16;5017259;28;20122;-60
2021/06/19 05:05:58;;;;;;;21.88;6.70;;;;;;;16.97;73.88;100344.63;5019511;28;20116;-60
2021/06/19 05:08:25;;;;;;;20.98;7.30;;;;;;;16.95;73.81;100342.13;5023162;28;20568;-66
2021/06/19 05:10:51;;;;;;;27.50;7.68;;;;;;;16.92;73.41;100330.66;5021151;28;20133;-65
2021/06/19 05:13:18;;;;;;;24.83;6.50;;;;;;;16.77;73.47;100304.59;5013593;28;20137;-68
2021/06/19 05:15:45;;;;;;;24.88;8.10;;;;;;;17.07;73.16;100347.16;5008981;28;20135;-71
2021/06/19 05:18:12;;;;;;;24.17;7.30;;;;;;;17.07;73.58;100335.84;5018507;28;20082;-63
2021/06/19 05:20:40;;;;;;;18.60;7.13;;;;;;;17.11;73.32;100341.66;5012864;28;20046;-65
2021/06/19 05:23:10;;;;;;;18.48;7.85;;;;;;;17.11;73.27;100339.69;5016456;28;20125;-61
2021/06/19 05:25:37;;;;;;;12.25;7.13;;;;;;;17.13;73.16;100337.38;5019650;28;20101;-62
2021/06/19 05:28:04;;;;;;;16.85;8.25;;;;;;;17.20;72.85;100349.00;5010481;28;20549;-68
2021/06/19 05:30:31;;;;;;;14.10;6.88;;;;;;;17.23;73.10;100348.34;5013835;28;20077;-71
2021/06/19 05:32:58;;;;;;;21.33;6.97;;;;;;;17.20;72.96;100351.00;5012419;28;20441;-64
2021/06/19 05:35:25;;;;;;;17.00;8.73;;;;;;;17.18;73.08;100345.66;5016782;28;20397;-64
2021/06/19 05:37:52;;;;;;;24.50;6.57;;;;;;;17.22;72.67;100355.13;5013805;28;20117;-64
2021/06/19 05:40:19;;;;;;;17.95;7.53;;;;;;;17.19;72.82;100352.94;5021402;28;20042;-64
2021/06/19 05:42:46;;;;;;;25.25;7.45;;;;;;;17.27;72.77;100352.16;5012313;28;20050;-63
2021/06/19 05:45:14;;;;;;;18.77;6.95;;;;;;;17.23;72.57;100344.66;5016528;28;20124;-63
2021/06/19 05:47:40;;;;;;;24.17;7.63;;;;;;;17.28;72.49;100365.09;5014829;28;20096;-63
2021/06/19 05:50:08;;;;;;;19.98;7.78;;;;;;;17.29;72.39;100352.63;5019063;28;20129;-63
2021/06/19 05:52:35;;;;;;;21.67;8.35;;;;;;;17.33;72.20;100363.25;5014568;28;20125;-64
2021/06/19 05:55:03;;;;;;;15.57;6.80;;;;;;;17.27;72.31;100363.44;5013305;28;20133;-62
2021/06/19 05:57:30;;;;;;;22.75;6.70;;;;;;;17.24;72.04;100368.91;5014944;28;20078;-65
2021/06/19 05:59:57;;;;;;;18.65;7.50;;;;;;;17.24;72.55;100366.09;5018038;28;20473;-59
2021/06/19 06:02:23;;;;;;;22.50;7.85;;;;;;;17.37;72.60;100370.75;5012873;28;20449;-62
2021/06/19 06:04:50;;;;;;;19.83;7.38;;;;;;;17.46;72.21;100365.94;5013080;28;20129;-66
2021/06/19 06:07:17;;;;;;;14.35;6.63;;;;;;;17.67;72.44;100374.56;5020065;28;20479;-63
2021/06/19 06:09:44;;;;;;;15.25;6.80;;;;;;;17.80;72.07;100369.13;5018487;28;20111;-66
2021/06/19 06:12:11;;;;;;;14.82;7.18;;;;;;;17.91;72.24;100364.78;5012903;28;20124;-68
2021/06/19 06:14:38;;;;;;;13.70;6.18;;;;;;;18.13;71.79;100375.06;5013896;28;20072;-66
2021/06/19 06:17:06;;;;;;;18.73;6.32;;;;;;;18.26;71.35;100384.50;5015921;28;20100;-65
2021/06/19 06:19:34;;;;;;;17.15;6.70;;;;;;;18.19;71.55;100359.59;5011787;28;20548;-70
2021/06/19 06:22:03;;;;;;;16.30;7.25;;;;;;;18.37;71.42;100369.66;5026518;28;20128;-67
2021/06/19 06:24:31;;;;;;;20.33;6.13;;;;;;;18.37;71.52;100366.00;5024704;28;20038;-69
2021/06/19 06:26:59;;;;;;;15.77;6.72;;;;;;;18.58;70.99;100369.75;5004978;28;20561;-70
2021/06/19 06:29:26;;;;;;;13.32;5.32;;;;;;;18.66;70.90;100360.38;5017450;28;20129;-66
2021/06/19 06:31:53;;;;;;;17.75;7.55;;;;;;;18.90;70.55;100371.13;5020918;28;20069;-69
2021/06/19 06:34:21;;;;;;;20.83;6.40;;;;;;;18.95;69.76;100367.28;5007806;28;20045;-65
2021/06/19 06:36:47;;;;;;;15.63;5.57;;;;;;;18.89;69.67;100374.28;5017731;28;20132;-72
2021/06/19 06:39:15;;;;;;;20.90;6.07;;;;;;;18.85;69.72;100347.88;5010458;28;20087;-69
2021/06/19 06:41:42;;;;;;;15.48;5.63;;;;;;;19.27;69.18;100367.75;5007245;28;20655;-68
2021/06/19 06:44:09;;;;;;;14.70;6.00;;;;;;;19.45;69.19;100363.59;5014227;28;20137;-66
2021/06/19 06:46:36;;;;;;;17.42;7.90;;;;;;;19.53;68.74;100368.38;4994329;28;20132;-69
2021/06/19 06:49:03;;;;;;;14.32;5.80;;;;;;;19.53;68.86;100364.72;5009956;28;20081;-69
2021/06/19 06:51:33;;;;;;;14.25;5.70;;;;;;;19.53;68.65;100365.53;5012476;28;20461;-72
2021/06/19 06:54:00;;;;;;;12.32;5.45;;;;;;;19.50;68.71;100369.06;5033028;28;20066;-71
2021/06/19 06:56:27;;;;;;;12.32;5.40;;;;;;;19.63;68.32;100370.00;5014293;28;20188;-72
2021/06/19 06:58:54;;;;;;;17.17;6.55;;;;;;;19.97;67.97;100374.53;5007825;28;20077;-72
2021/06/19 07:01:21;;;;;;;12.68;5.07;;;;;;;20.29;67.59;100378.50;5012235;28;20521;-72
2021/06/19 07:03:49;;;;;;;8.88;4.88;;;;;;;20.53;66.59;100362.75;5020909;28;20042;-73
2021/06/19 07:06:16;;;;;;;11.90;5.35;;;;;;;20.95;66.12;100386.06;5011966;28;20077;-72
2021/06/19 07:08:43;;;;;;;7.18;4.15;;;;;;;21.08;65.43;100371.88;5006249;28;20081;-73
2021/06/19 07:11:14;;;;;;;9.98;4.35;;;;;;;21.48;64.51;100389.84;5013413;28;20101;-73
2021/06/19 07:13:41;;;;;;;13.85;4.25;;;;;;;21.75;63.78;100387.41;5005810;28;20714;-72
2021/06/19 07:16:07;;;;;;;7.80;4.07;;;;;;;21.95;63.03;100394.91;5003274;28;20053;-72
2021/06/19 07:18:35;;;;;;;12.65;4.18;;;;;;;21.80;62.96;100398.50;5006780;28;20044;-73
2021/06/19 07:21:01;;;;;;;11.75;3.97;;;;;;;21.29;62.94;100400.97;5007336;28;20100;-70
2021/06/19 07:23:31;;;;;;;10.80;4.18;;;;;;;20.80;63.71;100400.97;5004559;28;20495;-72
2021/06/19 07:25:58;;;;;;;8.73;3.58;;;;;;;20.34;64.27;100395.31;5010593;28;20125;-72
2021/06/19 07:28:25;;;;;;;11.45;4.00;;;;;;;20.03;64.42;100401.47;5010734;28;20137;-72
2021/06/19 07:30:52;;;;;;;10.90;4.15;;;;;;;19.68;64.57;100395.28;5004110;28;20484;-70
2021/06/19 07:33:19;;;;;;;12.18;4.32;;;;;;;19.54;64.71;100415.34;5009996;28;20611;-72
2021/06/19 07:35:46;;;;;;;9.25;4.47;;;;;;;19.40;64.82;100412.78;5031633;28;20133;-71
2021/06/19 07:38:16;;;;;;;14.50;5.32;;;;;;;19.27;64.97;100418.69;5010138;28;20198;-70
2021/06/19 07:40:43;;;;;;;10.05;4.03;;;;;;;19.23;65.41;100421.38;5016913;28;20133;-71
2021/06/19 07:43:10;;;;;;;8.05;4.38;;;;;;;19.18;65.53;100416.75;5021395;28;20077;-70
2021/06/19 07:45:37;;;;;;;8.75;4.93;;;;;;;19.08;65.14;100411.50;5011284;28;20406;-71
2021/06/19 07:48:04;;;;;;;8.43;3.90;;;;;;;18.98;65.46;100426.03;5012099;28;20045;-70
2021/06/19 07:50:31;;;;;;;9.57;4.55;;;;;;;18.89;65.69;100425.22;5016185;28;20046;-72
2021/06/19 07:52:58;;;;;;;6.68;4.00;;;;;;;18.91;65.64;100428.56;5012712;28;20049;-69
2021/06/19 07:55:25;;;;;;;8.20;4.20;;;;;;;18.93;66.00;100432.69;5017286;28;20128;-72
2021/06/19 07:57:51;;;;;;;11.57;4.97;;;;;;;18.95;65.75;100429.53;5010775;28;20089;-71
2021/06/19 08:00:19;;;;;;;6.78;3.90;;;;;;;18.96;65.47;100417.03;5009123;28;20534;-70
2021/06/19 08:02:54;;;;;;;14.27;5.38;;;;;;;18.89;65.57;100411.91;5012390;28;20054;-71
2021/06/19 08:05:21;;;;;;;7.28;3.80;;;;;;;18.92;65.68;100421.72;5004994;28;20576;-72
2021/06/19 08:07:48;;;;;;;8.15;3.88;;;;;;;18.80;65.68;100415.94;5010764;28;20046;-71
2021/06/19 08:10:14;;;;;;;15.43;5.18;;;;;;;18.83;65.69;100420.91;5012397;28;20132;-71
2021/06/19 08:12:42;;;;;;;13.80;5.25;;;;;;;18.73;66.13;100407.97;5018036;28;20129;-72
2021/06/19 08:15:11;;;;;;;18.08;6.15;;;;;;;18.81;66.27;100421.28;5012064;28;20057;-71
2021/06/19 08:17:38;;;;;;;12.50;5.07;;;;;;;18.79;66.18;100426.44;5009544;28;20124;-70
2021/06/19 08:20:06;;;;;;;13.80;4.22;;;;;;;18.67;66.25;100424.28;5011960;28;20050;-71
2021/06/19 08:22:33;;;;;;;8.73;3.88;;;;;;;18.69;66.50;100438.91;5011562;28;20078;-70
2021/06/19 08:25:00;;;;;;;7.97;3.15;;;;;;;18.75;66.39;100447.25;5011298;28;20052;-70
2021/06/19 08:27:27;;;;;;;13.27;3.47;;;;;;;18.72;66.15;100437.44;5011359;28;20129;-71
2021/06/19 08:29:54;;;;;;;17.17;3.60;;;;;;;18.77;66.24;100450.56;5012335;28;20133;-70
2021/06/19 08:32:21;;;;;;;13.43;4.07;;;;;;;18.78;66.03;100440.94;5011435;28;20129;-71
2021/06/19 08:34:48;;;;;;;11.40;3.28;;;;;;;18.75;66.18;100424.63;5012328;28;20137;-71
2021/06/19 08:37:16;;;;;;;7.32;3.17;;;;;;;18.82;65.88;100416.44;5011326;28;20433;-70
2021/06/19 08:39:43;;;;;;;8.32;3.42;;;;;;;18.96;65.75;100444.50;5009922;28;20050;-69
2021/06/19 08:42:10;;;;;;;6.47;3.05;;;;;;;18.99;65.58;100436.16;5010343;28;20543;-70
2021/06/19 08:44:37;;;;;;;15.05;3.78;;;;;;;19.07;65.65;100434.47;5010198;28;20050;-70
2021/06/19 08:47:04;;;;;;;7.40;3.70;;;;;;;19.18;65.41;100428.09;5012189;28;20084;-70
2021/06/19 08:49:32;;;;;;;7.18;3.28;;;;;;;19.30;65.07;100423.69;5009676;28;20089;-70
2021/06/19 08:52:00;;;;;;;6.95;3.28;;;;;;;19.58;64.99;100441.81;5011104;28;20073;-70
2021/06/19 08:54:38;;;;;;;7.65;3.25;;;;;;;19.81;63.89;100424.50;5012124;28;20663;-70
2021/06/19 08:57:07;;;;;;;5.45;2.80;;;;;;;20.06;63.67;100437.59;5011062;28;20051;-70
2021/06/19 08:59:34;;;;;;;4.97;2.90;;;;;;;20.13;63.25;100417.19;5027274;28;20150;-70
2021/06/19 09:02:01;;;;;;;8.95;3.35;;;;;;;20.48;62.71;100434.72;5011061;28;20138;-70
2021/06/19 09:04:28;;;;;;;12.80;3.38;;;;;;;21.13;62.06;100432.09;5011865;28;20482;-70
2021/06/19 09:06:57;;;;;;;6.57;2.30;;;;;;;21.75;60.56;100424.34;5012174;28;20041;-71
2021/06/19 09:09:23;;;;;;;14.10;2.75;;;;;;;22.39;59.42;100429.13;5010763;28;20155;-71
2021/06/19 09:11:53;;;;;;;9.70;3.72;;;;;;;22.97;58.04;100416.41;4992527;28;20138;-71
2021/06/19 09:14:28;;;;;;;5.90;2.55;;;;;;;22.91;57.58;100413.81;5000907;28;20129;-70
2021/06/19 09:17:04;;;;;;;4.18;1.55;;;;;;;22.50;57.27;100398.09;5010761;28;20124;-70
2021/06/19 09:19:39;;;;;;;4.85;1.73;;;;;;;22.39;56.63;100409.19;5012069;28;20129;-70
2021/06/19 09:22:22;;;;;;;7.15;2.25;;;;;;;22.64;55.93;100403.34;5009214;28;20563;-70
2021/06/19 09:24:52;;;;;;;3.63;2.10;;;;;;;23.00;55.15;100404.28;5009489;28;20096;-70
2021/06/19 09:27:40;;;;;;;3.30;1.90;;;;;;;23.32;54.75;100394.53;5010528;28;20080;-70
2021/06/19 09:30:14;;;;;;;2.45;1.70;;;;;;;23.66;53.25;100400.59;5012082;28;20162;-70
2021/06/19 09:32:42;;;;;;;5.07;2.08;;;;;;;24.13;53.09;100406.09;5012305;28;20459;-70
2021/06/19 09:35:15;;;;;;;4.28;2.22;;;;;;;24.62;51.46;100392.41;5010421;28;20132;-70
2021/06/19 09:37:46;;;;;;;3.00;1.70;;;;;;;24.91;50.80;100390.84;5011448;28;20050;-69
2021/06/19 09:40:31;;;;;;;3.70;1.70;;;;;;;24.94;50.33;100393.78;5010106;28;20070;-69
2021/06/19 09:43:20;;;;;;;4.45;2.03;;;;;;;24.82;50.15;100394.00;5012021;28;20046;-70
2021/06/19 09:46:10;;;;;;;3.05;2.00;;;;;;;24.67;49.86;100389.22;5006826;28;20077;-69
2021/06/19 09:48:46;;;;;;;4.68;2.05;;;;;;;24.68;49.70;100397.38;5011901;28;20470;-70
2021/06/19 09:51:19;;;;;;;4.60;2.10;;;;;;;25.05;49.17;100403.34;5010082;28;20588;-70
2021/06/19 09:53:53;;;;;;;4.88;1.85;;;;;;;25.57;47.69;100403.75;5010525;28;20486;-70
2021/06/19 09:56:21;;;;;;;5.35;2.00;;;;;;;25.86;47.08;100387.84;5013955;28;20073;-70
2021/06/19 09:58:55;;;;;;;8.20;1.85;;;;;;;25.99;46.62;100391.31;5015068;28;20081;-70
2021/06/19 10:01:39;;;;;;;4.70;1.73;;;;;;;25.79;47.31;100393.47;5014071;28;20046;-71
2021/06/19 10:04:08;;;;;;;2.88;1.85;;;;;;;26.15;46.15;100383.34;5015282;28;20046;-71
2021/06/19 10:06:37;;;;;;;5.85;1.55;;;;;;;25.99;45.83;100385.56;5012724;28;20042;-71
2021/06/19 10:09:08;;;;;;;4.05;1.90;;;;;;;25.37;45.68;100391.66;5015207;28;20386;-72
2021/06/19 10:11:35;;;;;;;6.45;2.00;;;;;;;24.90;46.70;100386.34;5014079;28;20137;-72
2021/06/19 10:14:03;;;;;;;5.47;1.83;;;;;;;24.57;47.15;100393.53;5015024;28;20137;-71
2021/06/19 10:16:30;;;;;;;2.65;1.83;;;;;;;24.22;47.24;100403.00;5014386;28;20050;-72
2021/06/19 10:18:57;;;;;;;4.28;2.00;;;;;;;23.78;48.04;100402.50;5015359;28;20130;-72
2021/06/19 10:21:26;;;;;;;4.93;2.53;;;;;;;23.45;48.57;100397.22;5013469;28;20050;-71
2021/06/19 10:23:53;;;;;;;3.85;1.83;;;;;;;23.42;49.10;100398.81;5010541;28;20137;-72
2021/06/19 10:26:24;;;;;;;4.18;1.88;;;;;;;23.94;48.93;100403.25;5014170;28;20577;-72
2021/06/19 10:28:58;;;;;;;6.07;2.67;;;;;;;24.49;48.76;100397.47;5013399;28;20077;-72
2021/06/19 10:31:26;;;;;;;8.93;2.38;;;;;;;24.80;48.20;100394.34;5011457;28;20084;-71
2021/06/19 10:33:54;;;;;;;7.50;2.45;;;;;;;25.16;47.34;100402.72;5013700;28;20049;-72
2021/06/19 10:36:37;;;;;;;7.30;2.00;;;;;;;25.55;46.97;100403.34;5014330;28;20141;-72
2021/06/19 10:39:04;;;;;;;4.00;1.75;;;;;;;25.88;45.65;100416.06;5014517;28;20081;-72
2021/06/19 10:41:50;;;;;;;4.60;2.15;;;;;;;26.04;45.93;100390.13;5013902;28;20077;-72
2021/06/19 10:44:48;;;;;;;4.72;2.17;;;;;;;26.27;46.01;100413.72;5013875;28;20053;-72
2021/06/19 10:47:20;;;;;;;2.92;1.65;;;;;;;26.28;45.65;100405.94;5014271;28;20136;-72
2021/06/19 10:49:47;;;;;;;12.82;2.78;;;;;;;25.99;45.61;100414.19;5014175;28;20506;-72
2021/06/19 10:52:32;;;;;;;5.57;2.22;;;;;;;26.00;45.89;100410.09;5010673;28;20076;-72
2021/06/19 10:55:09;;;;;;;6.15;2.10;;;;;;;26.37;45.51;100420.78;5010014;28;20073;-72
2021/06/19 10:57:43;;;;;;;3.83;2.17;;;;;;;26.46;45.67;100421.28;5012002;28;20461;-72
2021/06/19 11:00:32;;;;;;;5.82;2.03;;;;;;;26.72;45.89;100410.94;5013197;28;20085;-72
2021/06/19 11:03:02;;;;;;;5.10;2.83;;;;;;;27.09;44.29;100410.88;5012705;28;20405;-72
2021/06/19 11:05:41;;;;;;;8.13;2.78;;;;;;;26.91;44.51;100416.47;5011504;28;20056;-72
2021/06/19 11:08:08;;;;;;;;;;;;;;;26.63;46.27;100420.69;5012262;28;20078;-72
2021/06/19 11:10:45;;;;;;;3.97;2.15;;;;;;;26.82;45.36;100427.41;5012085;28;20024;-72
2021/06/19 11:16:30;;;;;;;7.68;2.40;;;;;;;27.14;44.56;100427.72;5009258;28;20128;-72
2021/06/19 11:18:57;;;;;;;6.55;2.45;;;;;;;27.39;43.97;100428.75;5010117;28;20045;-72
2021/06/19 11:21:30;;;;;;;6.72;2.50;;;;;;;27.36;43.66;100394.34;5011273;28;20124;-72
2021/06/19 11:24:00;;;;;;;4.65;2.25;;;;;;;27.46;42.99;100428.00;5013068;28;20455;-72
2021/06/19 11:29:43;;;;;;;8.45;2.38;;;;;;;27.81;42.72;100432.34;5013418;28;20140;-73
2021/06/19 11:32:25;;;;;;;6.97;2.28;;;;;;;27.62;42.58;100431.38;5013556;28;20137;-73
2021/06/19 11:34:53;;;;;;;7.95;2.15;;;;;;;27.36;42.26;100434.47;5012377;28;20054;-73